Time;durP1;ratioP1;P1;durP2;ratioP2;P2;SDS_P1;SDS_P2;PMS_P1;PMS_P2;Temp;Humidity;BMP_temperature;BMP_pressure;BME280_temperature;BME280_humidity;BME280_pressure;Samples;Min_cycle;Max_cycle;Signal;HPM_P1;HPM_P2
2021/07/21 00:00:30;;;;;;;;;;;17.40;99.90;;;;;;5090879;28;19908;-58
2021/07/21 00:02:55;;;;;;;;;;;17.40;99.90;;;;;;5090707;28;19908;-59
2021/07/21 00:05:22;;;;;;;;;;;17.40;99.90;;;;;;5090602;28;20015;-58
2021/07/21 00:07:47;;;;;;;;;;;17.30;99.90;;;;;;5090517;28;20023;-59
2021/07/21 00:10:15;;;;;;;;;;;17.30;99.90;;;;;;5072688;28;20382;-58
2021/07/21 00:15:25;;;;;;;;;;;17.30;99.90;;;;;;5090728;28;19962;-57
2021/07/21 00:17:59;;;;;;;;;;;17.40;99.90;;;;;;5090400;28;19936;-58
2021/07/21 00:20:25;;;;;;;;;;;17.30;99.90;;;;;;5090699;28;19958;-55
2021/07/21 00:22:51;;;;;;;;;;;17.30;99.90;;;;;;5090353;28;19916;-58
2021/07/21 00:25:17;;;;;;;;;;;17.30;99.90;;;;;;5090025;28;19945;-59
2021/07/21 00:27:43;;;;;;;;;;;17.30;99.90;;;;;;5090408;28;20379;-57
2021/07/21 00:30:10;;;;;;;;;;;17.30;99.90;;;;;;5090291;28;20011;-57
2021/07/21 00:32:35;;;;;;;;;;;17.30;99.90;;;;;;5090086;28;19923;-56
2021/07/21 00:35:03;;;;;;;;;;;17.30;99.90;;;;;;5090811;28;19913;-58
2021/07/21 00:37:28;;;;;;;;;;;17.30;99.90;;;;;;5090380;28;19983;-59
2021/07/21 00:39:54;;;;;;;;;;;17.30;99.90;;;;;;5090401;28;19912;-55
2021/07/21 00:42:19;;;;;;;;;;;17.30;99.90;;;;;;5090031;28;20419;-57
2021/07/21 00:44:45;;;;;;;;;;;17.30;99.90;;;;;;5090318;28;19908;-58
2021/07/21 00:47:10;;;;;;;;;;;17.30;99.90;;;;;;5093709;28;19969;-57
2021/07/21 00:49:36;;;;;;;;;;;17.30;99.90;;;;;;5093870;28;19943;-58
2021/07/21 00:52:04;;;;;;;;;;;17.20;99.90;;;;;;5094195;28;19908;-57
2021/07/21 00:54:33;;;;;;;;;;;17.20;99.90;;;;;;5075295;28;19914;-59
2021/07/21 00:56:59;;;;;;;;;;;17.20;99.90;;;;;;5090235;28;19916;-57
2021/07/21 00:59:25;;;;;;;;;;;17.20;99.90;;;;;;5088436;28;20530;-58
2021/07/21 01:01:51;;;;;;;;;;;17.20;99.90;;;;;;5091579;28;19938;-57
2021/07/21 01:04:16;;;;;;;;;;;17.20;99.90;;;;;;5092000;28;20259;-59
2021/07/21 01:06:42;;;;;;;;;;;17.10;99.90;;;;;;5093818;28;19923;-58
2021/07/21 01:09:07;;;;;;;;;;;17.10;99.90;;;;;;5092543;28;20335;-58
2021/07/21 01:11:34;;;;;;;;;;;17.10;99.90;;;;;;5093772;28;19990;-59
2021/07/21 01:14:11;;;;;;;;;;;17.10;99.90;;;;;;5074011;28;19908;-57
2021/07/21 01:16:40;;;;;;;;;;;17.10;99.90;;;;;;5093447;28;19937;-55
2021/07/21 01:19:10;;;;;;;;;;;17.10;99.90;;;;;;5093582;28;19908;-55
2021/07/21 01:21:38;;;;;;;;;;;17.10;99.90;;;;;;5093576;28;19908;-57
2021/07/21 01:24:13;;;;;;;;;;;17.10;99.90;;;;;;5093204;28;19915;-58
2021/07/21 01:26:42;;;;;;;;;;;17.10;99.90;;;;;;5093151;28;19912;-59
2021/07/21 01:29:08;;;;;;;;;;;17.10;99.90;;;;;;5093151;28;19928;-59
2021/07/21 01:31:36;;;;;;;;;;;17.10;99.90;;;;;;5075135;28;20436;-57
2021/07/21 01:34:03;;;;;;;;;;;17.00;99.90;;;;;;5093192;28;19923;-58
2021/07/21 01:36:29;;;;;;;;;;;17.00;99.90;;;;;;5093264;28;19916;-55
2021/07/21 01:39:02;;;;;;;;;;;17.00;99.90;;;;;;5093485;28;19954;-59
2021/07/21 01:41:29;;;;;;;;;;;17.00;99.90;;;;;;5092917;28;19962;-56
2021/07/21 01:43:57;;;;;;;;;;;17.00;99.90;;;;;;5092610;28;19912;-59
2021/07/21 01:46:23;;;;;;;;;;;17.00;99.90;;;;;;5092293;28;19912;-58
2021/07/21 01:48:50;;;;;;;;;;;17.00;99.90;;;;;;5092875;28;20286;-56
2021/07/21 01:51:16;;;;;;;;;;;17.00;99.90;;;;;;5087274;28;19908;-58
2021/07/21 01:53:43;;;;;;;;;;;17.00;99.90;;;;;;5092792;28;19915;-57
2021/07/21 01:56:10;;;;;;;;;;;17.00;99.90;;;;;;5092452;28;19939;-58
2021/07/21 01:58:36;;;;;;;;;;;17.00;99.90;;;;;;5091928;28;19908;-58
2021/07/21 02:01:03;;;;;;;;;;;17.00;99.90;;;;;;5092030;28;20282;-59
2021/07/21 02:03:30;;;;;;;;;;;17.00;99.90;;;;;;5092568;28;19908;-56
2021/07/21 02:05:59;;;;;;;;;;;16.90;99.90;;;;;;5092609;28;20002;-57
2021/07/21 02:08:25;;;;;;;;;;;16.90;99.90;;;;;;5092684;28;19908;-57
2021/07/21 02:10:50;;;;;;;;;;;16.90;99.90;;;;;;5092416;28;20042;-58
2021/07/21 02:13:17;;;;;;;;;;;16.90;99.90;;;;;;5092441;28;19915;-56
2021/07/21 02:15:44;;;;;;;;;;;16.90;99.90;;;;;;5087651;28;19923;-56
2021/07/21 02:18:10;;;;;;;;;;;16.90;99.90;;;;;;5092261;28;20001;-56
2021/07/21 02:20:36;;;;;;;;;;;16.90;99.90;;;;;;5092205;28;20378;-56
2021/07/21 02:23:02;;;;;;;;;;;16.90;99.90;;;;;;5091932;28;19915;-58
2021/07/21 02:25:28;;;;;;;;;;;16.90;99.90;;;;;;5091751;28;19908;-57
2021/07/21 02:27:54;;;;;;;;;;;16.90;99.90;;;;;;5092090;28;19961;-58
2021/07/21 02:30:20;;;;;;;;;;;16.90;99.90;;;;;;5073836;28;19973;-56
2021/07/21 02:33:20;;;;;;;;;;;16.90;99.90;;;;;;5091677;28;19994;-59
2021/07/21 02:35:46;;;;;;;;;;;16.90;99.90;;;;;;5018505;28;19910;-58
2021/07/21 02:38:13;;;;;;;;;;;16.90;99.90;;;;;;5078808;28;19908;-57
2021/07/21 02:40:39;;;;;;;;;;;16.90;99.90;;;;;;5091636;28;19912;-59
2021/07/21 02:43:05;;;;;;;;;;;16.90;99.90;;;;;;5091562;28;19987;-59
2021/07/21 02:45:31;;;;;;;;;;;16.90;99.90;;;;;;5091454;28;20337;-57
2021/07/21 02:47:56;;;;;;;;;;;16.90;99.90;;;;;;5091695;28;19999;-57
2021/07/21 02:50:22;;;;;;;;;;;16.90;99.90;;;;;;5091838;28;19916;-58
2021/07/21 02:53:14;;;;;;;;;;;16.80;99.90;;;;;;5091336;28;19985;-55
2021/07/21 02:55:45;;;;;;;;;;;16.80;99.90;;;;;;5083226;28;19977;-57
2021/07/21 02:58:42;;;;;;;;;;;16.80;99.90;;;;;;5091551;28;19920;-59
2021/07/21 03:01:08;;;;;;;;;;;16.80;99.90;;;;;;5045996;28;20396;-57
2021/07/21 03:03:35;;;;;;;;;;;16.80;99.90;;;;;;5092252;28;19908;-58
2021/07/21 03:06:03;;;;;;;;;;;16.80;99.90;;;;;;5091348;28;19965;-58
2021/07/21 03:08:29;;;;;;;;;;;16.80;99.90;;;;;;5091205;28;20073;-58
2021/07/21 03:11:02;;;;;;;;;;;16.80;99.90;;;;;;5091082;28;20251;-56
2021/07/21 03:13:38;;;;;;;;;;;16.80;99.90;;;;;;5090676;28;19908;-55
2021/07/21 03:16:04;;;;;;;;;;;16.80;99.90;;;;;;5091196;28;19908;-58
2021/07/21 03:18:31;;;;;;;;;;;16.80;99.90;;;;;;5091159;28;20615;-58
2021/07/21 03:20:56;;;;;;;;;;;16.80;99.90;;;;;;5091056;28;19908;-58
2021/07/21 03:23:24;;;;;;;;;;;16.80;99.90;;;;;;5091311;28;20316;-57
2021/07/21 03:25:52;;;;;;;;;;;16.80;99.90;;;;;;5090782;28;19912;-57
2021/07/21 03:28:18;;;;;;;;;;;16.80;99.90;;;;;;5091264;28;20328;-58
2021/07/21 03:30:43;;;;;;;;;;;16.80;99.90;;;;;;5091113;28;19916;-56
2021/07/21 03:33:10;;;;;;;;;;;16.80;99.90;;;;;;5090889;28;19923;-59
2021/07/21 03:35:36;;;;;;;;;;;16.80;99.90;;;;;;5090178;28;20374;-58
2021/07/21 03:38:02;;;;;;;;;;;16.70;99.90;;;;;;5091193;28;19915;-59
2021/07/21 03:40:29;;;;;;;;;;;16.70;99.90;;;;;;5072897;28;19994;-57
2021/07/21 03:42:55;;;;;;;;;;;16.70;99.90;;;;;;5090616;28;19954;-59
2021/07/21 03:45:23;;;;;;;;;;;16.70;99.90;;;;;;5090912;28;19908;-56
2021/07/21 03:47:49;;;;;;;;;;;16.80;99.90;;;;;;5091367;28;19919;-57
2021/07/21 03:50:17;;;;;;;;;;;16.70;99.90;;;;;;5091060;28;19908;-56
2021/07/21 03:52:44;;;;;;;;;;;16.70;99.90;;;;;;5090906;28;19908;-58
2021/07/21 03:55:10;;;;;;;;;;;16.70;99.90;;;;;;5090858;28;19994;-58
2021/07/21 03:57:36;;;;;;;;;;;16.80;99.90;;;;;;5091260;28;19908;-58
2021/07/21 04:00:03;;;;;;;;;;;16.80;99.90;;;;;;5091171;28;20359;-58
2021/07/21 04:02:29;;;;;;;;;;;16.80;99.90;;;;;;5073029;28;19962;-59
2021/07/21 04:04:56;;;;;;;;;;;16.80;99.90;;;;;;5090906;28;20328;-58
2021/07/21 04:07:22;;;;;;;;;;;16.80;99.90;;;;;;5091389;28;20059;-58
2021/07/21 04:09:50;;;;;;;;;;;16.80;99.90;;;;;;5072869;28;19947;-58
2021/07/21 04:12:16;;;;;;;;;;;16.80;99.90;;;;;;5090671;28;19962;-58
2021/07/21 04:14:46;;;;;;;;;;;16.80;99.90;;;;;;5089867;28;19912;-58
2021/07/21 04:17:12;;;;;;;;;;;16.80;99.90;;;;;;5090867;28;19912;-56
2021/07/21 04:19:39;;;;;;;;;;;16.80;99.90;;;;;;5091084;28;19908;-58
2021/07/21 04:22:05;;;;;;;;;;;16.90;99.90;;;;;;5076171;28;19908;-58
2021/07/21 04:24:31;;;;;;;;;;;16.80;99.90;;;;;;5094630;28;19965;-60
2021/07/21 04:26:57;;;;;;;;;;;16.80;99.90;;;;;;5094625;28;19916;-55
2021/07/21 04:29:24;;;;;;;;;;;16.90;99.90;;;;;;5094633;28;19908;-57
2021/07/21 04:31:50;;;;;;;;;;;16.90;99.90;;;;;;5094720;28;19931;-58
2021/07/21 04:34:16;;;;;;;;;;;16.90;99.90;;;;;;5076476;28;20382;-58
2021/07/21 04:36:41;;;;;;;;;;;16.90;99.90;;;;;;5094692;28;19922;-55
2021/07/21 04:39:07;;;;;;;;;;;16.90;99.90;;;;;;5094446;28;19912;-56
2021/07/21 04:41:33;;;;;;;;;;;16.90;99.90;;;;;;5094458;28;19908;-58
2021/07/21 04:44:00;;;;;;;;;;;16.90;99.90;;;;;;5094134;28;19908;-56
2021/07/21 04:46:26;;;;;;;;;;;16.90;99.90;;;;;;5075151;28;19977;-59
2021/07/21 04:48:52;;;;;;;;;;;16.90;99.90;;;;;;5093852;28;20381;-57
2021/07/21 04:51:19;;;;;;;;;;;16.90;99.90;;;;;;5093791;28;20072;-59
2021/07/21 04:53:45;;;;;;;;;;;17.00;99.90;;;;;;5093640;28;19914;-60
2021/07/21 04:56:11;;;;;;;;;;;17.00;99.90;;;;;;5093339;28;20002;-57
2021/07/21 04:58:36;;;;;;;;;;;17.00;99.90;;;;;;5093827;28;20343;-59
2021/07/21 05:01:02;;;;;;;;;;;17.00;99.90;;;;;;5093895;28;20384;-59
2021/07/21 05:03:27;;;;;;;;;;;17.00;99.90;;;;;;5075715;28;20267;-58
2021/07/21 05:05:53;;;;;;;;;;;17.10;99.90;;;;;;5093481;28;19912;-58
2021/07/21 05:08:18;;;;;;;;;;;17.10;99.90;;;;;;5093594;28;19908;-58
2021/07/21 05:10:45;;;;;;;;;;;17.10;99.90;;;;;;5093616;28;20005;-57
2021/07/21 05:13:10;;;;;;;;;;;17.10;99.90;;;;;;5093314;28;19919;-58
2021/07/21 05:15:36;;;;;;;;;;;17.10;99.90;;;;;;5093577;28;20381;-59
2021/07/21 05:18:02;;;;;;;;;;;17.10;99.90;;;;;;5093340;28;19951;-59
2021/07/21 05:20:27;;;;;;;;;;;17.10;99.90;;;;;;5093688;28;19908;-58
2021/07/21 05:22:53;;;;;;;;;;;17.10;99.90;;;;;;5093295;28;19915;-59
2021/07/21 05:25:18;;;;;;;;;;;17.10;99.90;;;;;;5093193;28;20456;-58
2021/07/21 05:27:44;;;;;;;;;;;17.10;99.90;;;;;;5093213;28;19912;-56
2021/07/21 05:30:10;;;;;;;;;;;17.10;99.90;;;;;;5093557;28;19916;-59
2021/07/21 05:32:36;;;;;;;;;;;17.20;99.90;;;;;;5091997;28;19916;-57
2021/07/21 05:35:01;;;;;;;;;;;17.20;99.90;;;;;;5092746;28;19959;-58
2021/07/21 05:37:27;;;;;;;;;;;17.20;99.90;;;;;;5092995;28;19908;-58
2021/07/21 05:39:53;;;;;;;;;;;17.20;99.90;;;;;;5092954;28;19912;-58
2021/07/21 05:42:18;;;;;;;;;;;17.20;99.90;;;;;;5092952;28;20677;-58
2021/07/21 05:44:44;;;;;;;;;;;17.20;99.90;;;;;;5092541;28;19908;-56
2021/07/21 05:47:10;;;;;;;;;;;17.20;99.90;;;;;;5092723;28;19927;-56
2021/07/21 05:49:35;;;;;;;;;;;17.20;99.90;;;;;;5095992;28;19926;-59
2021/07/21 05:52:01;;;;;;;;;;;17.30;99.90;;;;;;5092681;28;20286;-57
2021/07/21 05:54:27;;;;;;;;;;;17.30;99.90;;;;;;5092278;28;19915;-59
2021/07/21 05:56:53;;;;;;;;;;;17.30;99.90;;;;;;5092522;28;19908;-59
2021/07/21 05:59:18;;;;;;;;;;;17.30;99.90;;;;;;5092639;28;19919;-59
2021/07/21 06:01:44;;;;;;;;;;;17.30;99.90;;;;;;5092219;28;20324;-57
2021/07/21 06:04:10;;;;;;;;;;;17.30;99.90;;;;;;5092024;28;19916;-59
2021/07/21 06:06:36;;;;;;;;;;;17.40;99.90;;;;;;5091985;28;19938;-58
2021/07/21 06:09:02;;;;;;;;;;;17.40;99.90;;;;;;5092000;28;19912;-58
2021/07/21 06:11:28;;;;;;;;;;;17.40;99.90;;;;;;5092109;28;20409;-58
2021/07/21 06:13:59;;;;;;;;;;;17.50;99.90;;;;;;5091772;28;19947;-60
2021/07/21 06:16:25;;;;;;;;;;;17.50;99.90;;;;;;5092128;28;20312;-56
2021/07/21 06:18:51;;;;;;;;;;;17.60;99.90;;;;;;5091945;28;19908;-58
2021/07/21 06:21:16;;;;;;;;;;;17.60;99.90;;;;;;5091864;28;19942;-58
2021/07/21 06:23:42;;;;;;;;;;;17.70;99.90;;;;;;5091670;28;19912;-58
2021/07/21 06:26:07;;;;;;;;;;;17.80;99.90;;;;;;5091616;28;19912;-57
2021/07/21 06:28:34;;;;;;;;;;;17.90;99.90;;;;;;5092124;28;20439;-59
2021/07/21 06:31:00;;;;;;;;;;;18.00;99.90;;;;;;5091887;28;20435;-58
2021/07/21 06:33:25;;;;;;;;;;;18.20;99.90;;;;;;5091477;28;20010;-57
2021/07/21 06:35:51;;;;;;;;;;;18.20;99.90;;;;;;5091349;28;20353;-58
2021/07/21 06:38:16;;;;;;;;;;;18.30;99.90;;;;;;5091666;28;19982;-58
2021/07/21 06:40:42;;;;;;;;;;;18.40;99.90;;;;;;5091370;28;19915;-58
2021/07/21 06:43:08;;;;;;;;;;;18.40;99.90;;;;;;5091187;28;19920;-57
2021/07/21 06:45:34;;;;;;;;;;;18.50;99.90;;;;;;5073058;28;19937;-59
2021/07/21 06:47:59;;;;;;;;;;;18.60;99.90;;;;;;5091409;28;20389;-57
2021/07/21 06:50:26;;;;;;;;;;;18.60;99.90;;;;;;5091578;28;19908;-57
2021/07/21 06:52:52;;;;;;;;;;;18.60;99.90;;;;;;5091282;28;20555;-57
2021/07/21 06:55:19;;;;;;;;;;;18.60;99.90;;;;;;5090321;28;20223;-56
2021/07/21 06:57:45;;;;;;;;;;;18.70;99.90;;;;;;5091714;28;20008;-60
2021/07/21 07:00:10;;;;;;;;;;;18.90;99.90;;;;;;5091694;28;19938;-59
2021/07/21 07:02:36;;;;;;;;;;;19.00;99.90;;;;;;5073495;28;19953;-58
2021/07/21 07:05:02;;;;;;;;;;;19.20;99.90;;;;;;5090940;28;19918;-58
2021/07/21 07:07:28;;;;;;;;;;;19.30;99.90;;;;;;5091407;28;19954;-58
2021/07/21 07:09:53;;;;;;;;;;;19.50;99.90;;;;;;5091120;28;19908;-60
2021/07/21 07:12:19;;;;;;;;;;;19.60;99.90;;;;;;5091283;28;19908;-60
2021/07/21 07:14:44;;;;;;;;;;;19.70;99.90;;;;;;5090700;28;19908;-58
2021/07/21 07:17:10;;;;;;;;;;;19.60;99.90;;;;;;5091379;28;19969;-58
2021/07/21 07:19:36;;;;;;;;;;;19.80;99.90;;;;;;5091280;28;19908;-59
2021/07/21 07:22:02;;;;;;;;;;;19.70;99.90;;;;;;5090843;28;19908;-59
2021/07/21 07:24:28;;;;;;;;;;;19.70;99.90;;;;;;5089791;28;19915;-58
2021/07/21 07:26:55;;;;;;;;;;;19.60;99.90;;;;;;5090430;28;19920;-58
2021/07/21 07:29:20;;;;;;;;;;;19.50;99.90;;;;;;5091664;28;20023;-58
2021/07/21 07:31:46;;;;;;;;;;;19.50;99.90;;;;;;5090975;28;19908;-58
2021/07/21 07:34:11;;;;;;;;;;;19.40;99.90;;;;;;5085535;22;20470;-52
2021/07/21 07:36:37;;;;;;;;;;;19.20;99.90;;;;;;5069797;28;19995;-48
2021/07/21 07:39:03;;;;;;;;;;;19.20;99.90;;;;;;5070471;28;20367;-53
2021/07/21 07:41:29;;;;;;;;;;;19.10;99.90;;;;;;5070293;28;19932;-51
2021/07/21 07:43:54;;;;;;;;;;;19.00;99.90;;;;;;5070323;28;20414;-50
2021/07/21 07:46:20;;;;;;;;;;;18.90;99.90;;;;;;5069933;28;20019;-54
2021/07/21 07:48:46;;;;;;;;;;;18.80;99.90;;;;;;5070430;28;19912;-55
2021/07/21 07:51:11;;;;;;;;;;;18.70;99.90;;;;;;5070023;28;20015;-55
2021/07/21 07:53:37;;;;;;;;;;;18.60;99.90;;;;;;5070317;28;20264;-53
2021/07/21 07:56:02;;;;;;;;;;;18.60;99.90;;;;;;5069701;28;19909;-56
2021/07/21 07:58:28;;;;;;;;;;;18.50;99.90;;;;;;5070814;28;19915;-54
2021/07/21 08:00:54;;;;;;;;;;;18.50;99.90;;;;;;5070583;28;19958;-52
2021/07/21 08:03:20;;;;;;;;;;;18.40;99.90;;;;;;5060916;28;20297;-50
2021/07/21 08:05:46;;;;;;;;;;;18.40;99.90;;;;;;5069762;28;19912;-55
2021/07/21 08:08:11;;;;;;;;;;;18.50;99.90;;;;;;5059941;28;20404;-55
2021/07/21 08:10:37;;;;;;;;;;;18.60;99.90;;;;;;5070082;28;19909;-56
2021/07/21 08:13:02;;;;;;;;;;;18.70;99.90;;;;;;5069625;28;19908;-53
2021/07/21 08:15:28;;;;;;;;;;;18.80;99.90;;;;;;5060273;28;19955;-55
2021/07/21 08:17:54;;;;;;;;;;;19.00;99.90;;;;;;5070034;28;20007;-53
2021/07/21 08:20:20;;;;;;;;;;;19.10;99.90;;;;;;5069621;28;19916;-56
2021/07/21 08:22:45;;;;;;;;;;;19.10;99.90;;;;;;5069956;28;20306;-56
2021/07/21 08:25:12;;;;;;;;;;;19.10;99.90;;;;;;5069564;28;19923;-49
2021/07/21 08:27:37;;;;;;;;;;;19.20;99.90;;;;;;5070356;28;19913;-55
2021/07/21 08:30:05;;;;;;;;;;;19.20;99.90;;;;;;5070234;28;20382;-53
2021/07/21 08:32:31;;;;;;;;;;;19.30;99.90;;;;;;5069762;28;19987;-53
2021/07/21 08:34:57;;;;;;;;;;;19.30;99.90;;;;;;5069208;28;20015;-53
2021/07/21 08:37:22;;;;;;;;;;;19.40;99.90;;;;;;5069797;28;19909;-53
2021/07/21 08:39:47;;;;;;;;;;;19.40;99.90;;;;;;5069881;28;19908;-51
2021/07/21 08:42:13;;;;;;;;;;;19.40;99.90;;;;;;5069876;28;20460;-51
2021/07/21 08:44:38;;;;;;;;;;;19.30;99.90;;;;;;5069160;28;19908;-49
2021/07/21 08:47:07;;;;;;;;;;;19.40;99.90;;;;;;5069710;28;19920;-55
2021/07/21 08:49:33;;;;;;;;;;;19.50;99.90;;;;;;5069632;28;19909;-53
2021/07/21 08:51:59;;;;;;;;;;;19.60;99.90;;;;;;5069725;28;20362;-52
2021/07/21 08:54:25;;;;;;;;;;;19.60;99.90;;;;;;5069538;28;19999;-53
2021/07/21 08:56:51;;;;;;;;;;;19.80;99.90;;;;;;5069876;28;20276;-54
2021/07/21 08:59:16;;;;;;;;;;;20.00;99.90;;;;;;5070039;28;20054;-53
2021/07/21 09:01:42;;;;;;;;;;;20.20;99.90;;;;;;5069791;28;19928;-52
2021/07/21 09:04:08;;;;;;;;;;;20.10;99.90;;;;;;5069565;28;19914;-51
2021/07/21 09:06:33;;;;;;;;;;;20.20;99.90;;;;;;5070406;28;19912;-53
2021/07/21 09:08:59;;;;;;;;;;;20.30;99.90;;;;;;5073291;28;19919;-54
2021/07/21 09:11:24;;;;;;;;;;;20.40;99.90;;;;;;5073183;28;19978;-52
2021/07/21 09:13:50;;;;;;;;;;;20.70;99.90;;;;;;5072941;28;20436;-53
2021/07/21 09:16:15;;;;;;;;;;;20.80;99.90;;;;;;5069314;28;19909;-50
2021/07/21 09:18:48;;;;;;;;;;;20.80;99.90;;;;;;5073017;28;20294;-51
2021/07/21 09:21:14;;;;;;;;;;;20.80;99.90;;;;;;5072929;28;19916;-46
2021/07/21 09:23:41;;;;;;;;;;;20.70;99.90;;;;;;5072669;28;19958;-49
2021/07/21 09:26:08;;;;;;;;;;;20.60;99.90;;;;;;5072992;28;19912;-52
2021/07/21 09:28:37;;;;;;;;;;;20.50;99.90;;;;;;5073145;28;19915;-50
2021/07/21 09:31:04;;;;;;;;;;;20.30;99.90;;;;;;5072934;28;20455;-56
2021/07/21 09:33:29;;;;;;;;;;;20.10;99.90;;;;;;5072399;28;19913;-54
2021/07/21 09:35:56;;;;;;;;;;;19.90;99.90;;;;;;5072174;28;20057;-50
2021/07/21 09:38:29;;;;;;;;;;;19.70;99.90;;;;;;5072642;28;19913;-54
2021/07/21 09:40:56;;;;;;;;;;;19.50;99.90;;;;;;5062902;28;19909;-52
2021/07/21 09:43:23;;;;;;;;;;;19.40;99.90;;;;;;5062909;28;19916;-57
2021/07/21 09:45:49;;;;;;;;;;;19.40;99.90;;;;;;5072026;28;20290;-52
2021/07/21 09:48:15;;;;;;;;;;;19.30;99.90;;;;;;5062640;28;19920;-52
2021/07/21 09:50:41;;;;;;;;;;;19.20;99.90;;;;;;5072310;28;19909;-53
2021/07/21 09:53:10;;;;;;;;;;;19.10;99.90;;;;;;5072115;28;20302;-51
2021/07/21 09:55:36;;;;;;;;;;;19.00;99.90;;;;;;5072386;28;19915;-54
2021/07/21 09:58:18;;;;;;;;;;;19.00;99.90;;;;;;5072200;28;20568;-52
2021/07/21 10:00:45;;;;;;;;;;;18.90;99.90;;;;;;5072009;28;20005;-56
2021/07/21 10:03:14;;;;;;;;;;;19.00;99.90;;;;;;5071631;28;19908;-55
2021/07/21 10:05:58;;;;;;;;;;;19.00;99.90;;;;;;5061786;28;19944;-49
2021/07/21 10:08:26;;;;;;;;;;;19.00;99.90;;;;;;5071150;28;19995;-54
2021/07/21 10:10:52;;;;;;;;;;;19.10;99.90;;;;;;5071851;28;19919;-54
2021/07/21 10:13:17;;;;;;;;;;;19.10;99.90;;;;;;5071454;28;19913;-53
2021/07/21 10:15:44;;;;;;;;;;;19.20;99.90;;;;;;5071605;28;19912;-53
2021/07/21 10:18:11;;;;;;;;;;;19.30;99.90;;;;;;5071204;28;19915;-51
2021/07/21 10:20:37;;;;;;;;;;;19.40;99.90;;;;;;5071842;28;19977;-54
2021/07/21 10:23:03;;;;;;;;;;;19.50;99.90;;;;;;5071621;28;19908;-54
2021/07/21 10:25:30;;;;;;;;;;;19.60;99.90;;;;;;5071595;28;19908;-53
2021/07/21 10:27:57;;;;;;;;;;;19.80;99.90;;;;;;5071870;28;19918;-50
2021/07/21 10:30:24;;;;;;;;;;;20.00;99.90;;;;;;5061691;28;19908;-53
2021/07/21 10:32:50;;;;;;;;;;;20.20;99.90;;;;;;5071361;28;19912;-53
2021/07/21 10:35:16;;;;;;;;;;;20.20;99.90;;;;;;5070798;28;20355;-53
2021/07/21 10:37:41;;;;;;;;;;;20.40;99.90;;;;;;5071166;28;19913;-53
2021/07/21 10:40:07;;;;;;;;;;;20.40;99.90;;;;;;5071355;28;19915;-50
2021/07/21 10:42:33;;;;;;;;;;;20.40;99.90;;;;;;5071205;28;19908;-48
2021/07/21 10:45:18;;;;;;;;;;;20.40;99.90;;;;;;5070892;28;19908;-49
2021/07/21 10:47:45;;;;;;;;;;;20.50;99.90;;;;;;5071130;28;20413;-48
2021/07/21 10:50:31;;;;;;;;;;;20.60;99.90;;;;;;5061435;28;19956;-48
2021/07/21 10:53:16;;;;;;;;;;;20.70;99.90;;;;;;5071240;28;19908;-49
2021/07/21 10:55:46;;;;;;;;;;;20.90;99.90;;;;;;5071117;28;19918;-55
2021/07/21 11:00:55;;;;;;;;;;;21.10;99.90;;;;;;5071536;28;19915;-51
2021/07/21 11:03:25;;;;;;;;;;;21.10;99.90;;;;;;5070752;28;19912;-49
2021/07/21 11:06:00;;;;;;;;;;;21.20;99.90;;;;;;5070931;28;20320;-52
2021/07/21 11:08:26;;;;;;;;;;;21.00;99.90;;;;;;5070840;28;19908;-50
2021/07/21 11:10:53;;;;;;;;;;;20.90;99.90;;;;;;5070817;28;19920;-52
2021/07/21 11:13:28;;;;;;;;;;;21.00;99.90;;;;;;5070419;28;19912;-53
2021/07/21 11:15:53;;;;;;;;;;;21.00;99.90;;;;;;5070881;28;19908;-46
2021/07/21 11:18:22;;;;;;;;;;;21.00;99.90;;;;;;5070675;28;20282;-51
2021/07/21 11:20:58;;;;;;;;;;;21.10;99.90;;;;;;5070867;28;19909;-50
2021/07/21 11:23:42;;;;;;;;;;;21.00;99.90;;;;;;5067332;28;19909;-48
2021/07/21 11:26:26;;;;;;;;;;;21.40;99.90;;;;;;5070477;28;20443;-50
2021/07/21 11:28:51;;;;;;;;;;;21.80;99.90;;;;;;5070514;28;20146;-50
2021/07/21 11:31:17;;;;;;;;;;;21.80;99.90;;;;;;5069776;28;19948;-54
2021/07/21 11:33:56;;;;;;;;;;;21.80;99.90;;;;;;5070032;28;19952;-49
2021/07/21 11:36:39;;;;;;;;;;;21.80;99.90;;;;;;5063072;28;20300;-49
2021/07/21 11:39:06;;;;;;;;;;;21.90;99.90;;;;;;5070402;28;19908;-54
2021/07/21 11:41:44;;;;;;;;;;;22.00;99.90;;;;;;5070439;28;20007;-53
2021/07/21 11:44:10;;;;;;;;;;;22.10;99.90;;;;;;5070112;28;19909;-49
2021/07/21 11:46:36;;;;;;;;;;;21.90;99.90;;;;;;5070014;28;19923;-54
2021/07/21 11:49:02;;;;;;;;;;;22.10;99.90;;;;;;5070324;28;20395;-48
2021/07/21 11:51:28;;;;;;;;;;;22.10;99.90;;;;;;5070360;28;19944;-49
2021/07/21 11:53:53;;;;;;;;;;;22.10;99.90;;;;;;5070634;28;19970;-47
2021/07/21 11:56:20;;;;;;;;;;;22.00;99.90;;;;;;5070026;28;19995;-48
2021/07/21 11:58:46;;;;;;;;;;;21.80;99.90;;;;;;5070315;28;19953;-54
2021/07/21 12:01:11;;;;;;;;;;;21.70;99.90;;;;;;5060322;28;19999;-50
2021/07/21 12:03:44;;;;;;;;;;;21.50;99.90;;;;;;5070137;28;20000;-49
2021/07/21 12:06:10;;;;;;;;;;;21.40;99.90;;;;;;5069743;28;20382;-52
2021/07/21 12:08:35;;;;;;;;;;;21.30;99.90;;;;;;5070228;28;19908;-48
2021/07/21 12:11:11;;;;;;;;;;;21.40;99.90;;;;;;5070240;28;20395;-48
2021/07/21 12:13:36;;;;;;;;;;;21.50;99.90;;;;;;5064415;28;20485;-51
2021/07/21 12:16:02;;;;;;;;;;;21.80;99.90;;;;;;5070135;28;19962;-51
2021/07/21 12:18:27;;;;;;;;;;;22.00;99.90;;;;;;5069993;28;20422;-47
2021/07/21 12:20:53;;;;;;;;;;;22.00;99.90;;;;;;5070053;28;19995;-47
2021/07/21 12:23:23;;;;;;;;;;;22.00;99.90;;;;;;5069973;28;19912;-53
2021/07/21 12:25:48;;;;;;;;;;;21.90;99.90;;;;;;5069865;28;19909;-53
2021/07/21 12:28:14;;;;;;;;;;;21.90;99.90;;;;;;5069831;28;20492;-49
2021/07/21 12:30:39;;;;;;;;;;;21.90;99.90;;;;;;5069984;28;19970;-50
2021/07/21 12:33:05;;;;;;;;;;;21.80;99.90;;;;;;5065072;28;19916;-54
2021/07/21 12:35:31;;;;;;;;;;;21.80;99.90;;;;;;5069284;28;19948;-51
2021/07/21 12:37:58;;;;;;;;;;;21.80;99.90;;;;;;5060141;28;19943;-56
2021/07/21 12:40:26;;;;;;;;;;;21.80;99.90;;;;;;5069992;28;19909;-48
2021/07/21 12:42:53;;;;;;;;;;;21.80;99.90;;;;;;5072507;28;19966;-48
2021/07/21 12:45:20;;;;;;;;;;;21.80;99.90;;;;;;5073500;28;19914;-49
2021/07/21 12:47:47;;;;;;;;;;;21.80;99.90;;;;;;5073573;28;19966;-49
2021/07/21 12:50:15;;;;;;;;;;;21.90;99.90;;;;;;5073781;28;19908;-51
2021/07/21 12:53:07;;;;;;;;;;;21.90;99.90;;;;;;5073588;28;19909;-49
2021/07/21 12:55:35;;;;;;;;;;;21.90;99.90;;;;;;5066338;28;19913;-49
2021/07/21 12:58:03;;;;;;;;;;;22.00;99.90;;;;;;5073469;28;19909;-50
2021/07/21 13:00:31;;;;;;;;;;;22.10;99.90;;;;;;5073471;28;20343;-50
2021/07/21 13:03:03;;;;;;;;;;;22.10;99.90;;;;;;5073082;28;20012;-48
2021/07/21 13:05:32;;;;;;;;;;;22.20;99.90;;;;;;5072971;28;20397;-49
2021/07/21 13:07:59;;;;;;;;;;;22.40;99.90;;;;;;5072912;28;19920;-51
2021/07/21 13:10:25;;;;;;;;;;;22.50;99.90;;;;;;5073595;28;19916;-47
2021/07/21 13:12:51;;;;;;;;;;;22.50;99.90;;;;;;5063603;28;20008;-48
2021/07/21 13:15:23;;;;;;;;;;;22.60;99.90;;;;;;5072659;28;20406;-49
2021/07/21 13:17:57;;;;;;;;;;;22.70;99.90;;;;;;5073131;28;19908;-48
2021/07/21 13:20:29;;;;;;;;;;;22.80;99.90;;;;;;5072747;28;20014;-48
2021/07/21 13:23:14;;;;;;;;;;;22.90;99.90;;;;;;5073083;28;19913;-55
2021/07/21 13:25:40;;;;;;;;;;;23.00;99.90;;;;;;5068004;28;19908;-47
2021/07/21 13:28:18;;;;;;;;;;;22.60;99.90;;;;;;5072885;28;19913;-48
2021/07/21 13:30:43;;;;;;;;;;;22.30;99.90;;;;;;5068397;28;19915;-49
2021/07/21 13:33:09;;;;;;;;;;;22.40;99.90;;;;;;5072316;28;19916;-54
2021/07/21 13:35:34;;;;;;;;;;;22.50;99.90;;;;;;5073684;22;19925;-57
2021/07/21 13:38:00;;;;;;;;;;;22.30;99.90;;;;;;5050026;28;19913;-59
2021/07/21 13:40:25;;;;;;;;;;;22.40;99.90;;;;;;5053057;28;19920;-59
2021/07/21 13:43:07;;;;;;;;;;;22.60;99.90;;;;;;5049122;28;19908;-58
2021/07/21 13:45:33;;;;;;;;;;;22.70;99.90;;;;;;5044702;28;20349;-58
2021/07/21 13:47:59;;;;;;;;;;;22.70;99.90;;;;;;5042626;28;19917;-59
2021/07/21 13:50:25;;;;;;;;;;;22.70;99.90;;;;;;5044501;28;20348;-59
2021/07/21 13:53:07;;;;;;;;;;;22.60;99.90;;;;;;5042813;28;19909;-59
2021/07/21 13:55:33;;;;;;;;;;;22.40;99.90;;;;;;5043592;28;19958;-60
2021/07/21 13:58:01;;;;;;;;;;;22.30;99.90;;;;;;5041547;28;19909;-58
2021/07/21 14:00:26;;;;;;;;;;;22.30;99.90;;;;;;5025925;28;19958;-56
2021/07/21 14:02:52;;;;;;;;;;;22.20;99.90;;;;;;5024384;28;19963;-58
2021/07/21 14:05:17;;;;;;;;;;;22.20;99.90;;;;;;5043343;28;20007;-57
2021/07/21 14:07:43;;;;;;;;;;;22.20;99.90;;;;;;5043780;28;20394;-57
2021/07/21 14:10:09;;;;;;;;;;;22.10;99.90;;;;;;5042993;28;19909;-58
2021/07/21 14:12:34;;;;;;;;;;;22.20;99.90;;;;;;5043526;28;19908;-59
2021/07/21 14:15:00;;;;;;;;;;;22.50;99.90;;;;;;5041529;28;19962;-58
2021/07/21 14:17:25;;;;;;;;;;;22.80;99.90;;;;;;5044038;28;20330;-58
2021/07/21 14:19:51;;;;;;;;;;;23.10;99.90;;;;;;5042612;28;19991;-59
2021/07/21 14:22:16;;;;;;;;;;;23.20;99.90;;;;;;5043673;28;19909;-58